Time;durP1;ratioP1;P1;durP2;ratioP2;P2;SDS_P1;SDS_P2;PMS_P1;PMS_P2;Temp;Humidity;BMP_temperature;BMP_pressure;BME280_temperature;BME280_humidity;BME280_pressure;Samples;Min_cycle;Max_cycle;Signal;HPM_P1;HPM_P2
2022/02/21 00:00:35;;;;;;;16.92;3.00;;;;;;;7.03;100.00;99630.66;5264825;28;20047;-72
2022/02/21 00:03:06;;;;;;;10.02;2.45;;;;;;;7.06;100.00;99653.84;5263736;28;20035;-72
2022/02/21 00:05:38;;;;;;;11.52;2.05;;;;;;;7.09;100.00;99657.97;5262499;28;20592;-72
2022/02/21 00:08:09;;;;;;;12.95;2.80;;;;;;;7.06;100.00;99653.84;5262185;28;20107;-72
2022/02/21 00:10:41;;;;;;;10.68;2.55;;;;;;;7.05;100.00;99675.63;5264688;28;20037;-73
2022/02/21 00:13:12;;;;;;;11.15;2.67;;;;;;;6.86;100.00;99694.66;5264927;28;20029;-71
2022/02/21 00:15:43;;;;;;;14.10;2.92;;;;;;;6.92;100.00;99662.88;5266973;28;20040;-72
2022/02/21 00:18:15;;;;;;;20.27;3.00;;;;;;;6.96;100.00;99666.03;5261640;28;20064;-69
2022/02/21 00:20:46;;;;;;;11.75;2.20;;;;;;;6.89;100.00;99667.53;5265988;28;20028;-72
2022/02/21 00:23:17;;;;;;;14.57;2.90;;;;;;;6.76;100.00;99676.41;5264526;28;20047;-71
2022/02/21 00:25:49;;;;;;;11.63;2.33;;;;;;;6.79;100.00;99689.16;5261738;28;20033;-72
2022/02/21 00:28:21;;;;;;;9.70;2.35;;;;;;;6.65;100.00;99707.75;5266384;28;20481;-71
2022/02/21 00:30:52;;;;;;;11.98;2.55;;;;;;;6.73;100.00;99714.91;5268327;28;20020;-71
2022/02/21 00:33:23;;;;;;;14.55;2.70;;;;;;;6.66;100.00;99703.38;5270488;28;20082;-71
2022/02/21 00:35:55;;;;;;;10.52;2.35;;;;;;;6.66;100.00;99705.97;5259305;28;20041;-71
2022/02/21 00:38:26;;;;;;;14.35;2.95;;;;;;;6.67;100.00;99728.47;5263049;28;20025;-71
2022/02/21 00:40:57;;;;;;;14.50;3.20;;;;;;;6.70;100.00;99730.78;5262231;28;20028;-71
2022/02/21 00:43:29;;;;;;;17.45;3.78;;;;;;;6.59;100.00;99747.31;5266003;28;20028;-70
2022/02/21 00:46:00;;;;;;;15.88;3.65;;;;;;;6.62;100.00;99752.25;5264586;28;20033;-70
2022/02/21 00:48:31;;;;;;;18.63;3.60;;;;;;;6.60;100.00;99753.38;5264658;28;20060;-70
2022/02/21 00:51:02;;;;;;;16.88;2.97;;;;;;;6.61;100.00;99744.59;5267783;28;20035;-70
2022/02/21 00:53:34;;;;;;;13.95;3.50;;;;;;;6.55;100.00;99754.59;5263445;28;20025;-70
2022/02/21 00:56:08;;;;;;;22.65;4.53;;;;;;;6.66;100.00;99764.03;5265397;28;20029;-71
2022/02/21 00:58:39;;;;;;;12.93;2.78;;;;;;;6.60;100.00;99755.97;5261847;28;20023;-71
2022/02/21 01:01:11;;;;;;;18.88;3.67;;;;;;;6.57;100.00;99755.25;5259271;28;20016;-71
2022/02/21 01:03:43;;;;;;;14.95;3.08;;;;;;;6.49;100.00;99755.09;5263030;28;20036;-71
2022/02/21 01:06:17;;;;;;;15.05;3.22;;;;;;;6.51;100.00;99768.78;5264382;28;20033;-71
2022/02/21 01:08:48;;;;;;;11.52;3.28;;;;;;;6.45;100.00;99774.53;5262502;28;20096;-73
2022/02/21 01:11:21;;;;;;;12.95;3.35;;;;;;;6.42;100.00;99777.38;5265883;28;20189;-71
2022/02/21 01:13:52;;;;;;;12.48;3.50;;;;;;;6.39;100.00;99788.03;5263368;28;20035;-71
2022/02/21 01:16:24;;;;;;;12.70;2.83;;;;;;;6.43;100.00;99799.84;5263189;28;20029;-71
2022/02/21 01:18:56;;;;;;;14.87;3.10;;;;;;;6.43;100.00;99815.44;5262477;28;20100;-71
2022/02/21 01:21:27;;;;;;;17.95;3.20;;;;;;;6.46;100.00;99810.00;5259003;28;20324;-71
2022/02/21 01:23:59;;;;;;;14.77;3.42;;;;;;;6.48;100.00;99808.09;5260345;28;20443;-71
2022/02/21 01:26:31;;;;;;;13.63;3.38;;;;;;;6.40;100.00;99804.47;5266240;28;20059;-71
2022/02/21 01:29:02;;;;;;;18.35;3.60;;;;;;;6.46;100.00;99809.16;5266086;28;20099;-70
2022/02/21 01:31:33;;;;;;;15.60;3.38;;;;;;;6.42;100.00;99819.00;5262270;28;20090;-71
2022/02/21 01:34:05;;;;;;;14.77;3.42;;;;;;;6.41;100.00;99817.38;5266246;28;20047;-70
2022/02/21 01:36:36;;;;;;;10.30;2.58;;;;;;;6.35;100.00;99817.88;5259394;28;20115;-70
2022/02/21 01:39:07;;;;;;;22.65;3.42;;;;;;;6.33;100.00;99809.38;5264759;28;20539;-70
2022/02/21 01:41:39;;;;;;;14.93;2.95;;;;;;;6.38;100.00;99827.19;5264069;28;20024;-70
2022/02/21 01:44:12;;;;;;;12.85;2.72;;;;;;;6.34;100.00;99827.44;5264192;28;20056;-70
2022/02/21 01:46:44;;;;;;;11.15;2.20;;;;;;;6.36;100.00;99819.50;5263815;28;20028;-71
2022/02/21 01:49:15;;;;;;;12.82;2.88;;;;;;;6.33;100.00;99825.81;5265520;28;20025;-69
2022/02/21 01:51:47;;;;;;;15.38;3.30;;;;;;;6.30;100.00;99813.06;5263884;28;20047;-71
2022/02/21 01:54:18;;;;;;;12.60;2.92;;;;;;;6.25;100.00;99814.38;5263973;28;20130;-71
2022/02/21 01:56:49;;;;;;;10.70;2.80;;;;;;;6.24;100.00;99820.53;5261773;28;20024;-71
2022/02/21 01:59:21;;;;;;;13.52;2.78;;;;;;;6.23;100.00;99809.31;5261149;28;20220;-71
2022/02/21 02:01:53;;;;;;;14.05;3.13;;;;;;;6.25;100.00;99814.38;5261770;28;20021;-71
2022/02/21 02:04:28;;;;;;;12.93;2.85;;;;;;;6.26;100.00;99813.44;5262334;28;20406;-71
2022/02/21 02:07:01;;;;;;;13.70;2.45;;;;;;;6.22;100.00;99822.47;5261605;28;20033;-71
2022/02/21 02:09:32;;;;;;;;;;;;;;;6.44;100.00;99835.31;5264336;28;20029;-72
2022/02/21 02:12:07;;;;;;;10.45;2.35;;;;;;;6.27;100.00;99838.50;5261934;28;20310;-70
2022/02/21 02:14:40;;;;;;;18.45;3.40;;;;;;;6.21;100.00;99831.19;5267868;28;20029;-70
2022/02/21 02:17:13;;;;;;;;;;;;;;;6.50;100.00;99827.00;5267654;28;20035;-71
2022/02/21 02:19:45;;;;;;;12.85;2.70;;;;;;;6.10;100.00;99837.28;5268781;28;19919;-71
2022/02/21 02:22:22;;;;;;;15.27;2.72;;;;;;;6.06;100.00;99826.31;5265147;28;20028;-71
2022/02/21 02:24:53;;;;;;;13.23;2.95;;;;;;;5.98;100.00;99846.91;5271740;28;20401;-70
2022/02/21 02:27:28;;;;;;;10.20;2.85;;;;;;;6.03;100.00;99846.56;5267949;28;20035;-70
2022/02/21 02:30:01;;;;;;;14.63;3.42;;;;;;;6.03;100.00;99857.78;5269859;28;20094;-71
2022/02/21 02:32:33;;;;;;;11.52;2.42;;;;;;;6.08;100.00;99849.59;5264081;28;20036;-70
2022/02/21 02:35:05;;;;;;;10.40;2.63;;;;;;;6.04;100.00;99836.00;5270502;28;20025;-70
2022/02/21 02:37:37;;;;;;;13.82;2.50;;;;;;;6.00;100.00;99859.78;5267222;28;20487;-71
2022/02/21 02:40:08;;;;;;;11.73;2.95;;;;;;;6.00;100.00;99849.41;5266383;28;20829;-70
2022/02/21 02:42:40;;;;;;;15.45;3.40;;;;;;;6.01;100.00;99853.63;5268516;28;20056;-71
2022/02/21 02:45:12;;;;;;;12.18;2.63;;;;;;;6.04;100.00;99859.41;5269617;28;20052;-71
2022/02/21 02:47:43;;;;;;;13.18;2.63;;;;;;;6.02;100.00;99853.53;5267758;28;20032;-71
2022/02/21 02:50:14;;;;;;;13.85;3.22;;;;;;;6.02;100.00;99858.72;5269962;28;20027;-70
2022/02/21 02:52:46;;;;;;;12.98;2.35;;;;;;;5.97;100.00;99858.25;5271244;28;20029;-71
2022/02/21 02:55:17;;;;;;;11.05;2.83;;;;;;;5.96;100.00;99858.41;5266427;28;20036;-71
2022/02/21 02:57:48;;;;;;;12.52;2.80;;;;;;;5.98;100.00;99848.69;5266812;28;20116;-70
2022/02/21 03:00:20;;;;;;;15.45;2.85;;;;;;;5.99;100.00;99853.78;5264725;28;20039;-70
2022/02/21 03:02:51;;;;;;;9.90;2.72;;;;;;;6.00;100.00;99852.81;5265409;28;20162;-70
2022/02/21 03:05:22;;;;;;;15.60;3.28;;;;;;;6.03;100.00;99856.94;5262950;28;20477;-71
2022/02/21 03:07:53;;;;;;;13.93;3.13;;;;;;;6.04;100.00;99863.78;5265864;28;20370;-70
2022/02/21 03:10:25;;;;;;;15.80;3.33;;;;;;;5.94;100.00;99850.69;5267809;28;20056;-71
2022/02/21 03:12:56;;;;;;;12.48;2.75;;;;;;;5.99;100.00;99848.56;5264800;28;20045;-71
2022/02/21 03:15:27;;;;;;;16.65;3.50;;;;;;;5.92;100.00;99883.81;5267695;28;20060;-71
2022/02/21 03:17:59;;;;;;;14.80;3.33;;;;;;;5.58;100.00;99854.47;5265843;28;20036;-71
2022/02/21 03:20:30;;;;;;;10.82;2.35;;;;;;;5.66;100.00;99856.47;5264816;28;20548;-71
2022/02/21 03:23:02;;;;;;;15.23;2.60;;;;;;;5.22;100.00;99868.59;5261487;28;20041;-71
2022/02/21 03:25:33;;;;;;;17.83;3.60;;;;;;;5.21;100.00;99893.72;5266975;28;20051;-71
2022/02/21 03:28:04;;;;;;;14.43;2.75;;;;;;;4.72;100.00;99899.25;5267148;28;20020;-72
2022/02/21 03:30:36;;;;;;;14.98;2.85;;;;;;;4.42;100.00;99885.03;5264601;28;20025;-72
2022/02/21 03:33:08;;;;;;;15.95;3.13;;;;;;;4.25;100.00;99859.56;5261105;28;20021;-71
2022/02/21 03:35:39;;;;;;;14.23;3.08;;;;;;;4.43;100.00;99867.72;5265880;28;20036;-71
2022/02/21 03:38:11;;;;;;;10.57;3.05;;;;;;;4.36;100.00;99880.34;5266365;28;20381;-73
2022/02/21 03:40:43;;;;;;;12.35;2.67;;;;;;;4.42;100.00;99879.03;5268607;28;20035;-73
2022/02/21 03:43:14;;;;;;;12.70;3.30;;;;;;;4.46;100.00;99880.47;5261013;28;20301;-73
2022/02/21 03:45:46;;;;;;;14.30;2.75;;;;;;;4.48;100.00;99881.19;5265955;28;20179;-73
2022/02/21 03:48:17;;;;;;;14.73;2.88;;;;;;;4.66;100.00;99886.72;5266109;28;20393;-72
2022/02/21 03:50:48;;;;;;;19.45;3.10;;;;;;;4.75;100.00;99880.88;5265773;28;20029;-72
2022/02/21 03:53:19;;;;;;;18.30;3.85;;;;;;;4.77;100.00;99887.59;5263227;28;20040;-73
2022/02/21 03:55:51;;;;;;;19.30;3.40;;;;;;;4.81;100.00;99888.16;5265116;28;20436;-72
2022/02/21 03:58:23;;;;;;;22.48;4.05;;;;;;;4.75;100.00;99886.88;5269962;28;20557;-72
2022/02/21 04:00:54;;;;;;;17.90;3.17;;;;;;;4.83;100.00;99900.09;5265169;28;20060;-73
2022/02/21 04:03:25;;;;;;;21.23;4.55;;;;;;;4.82;100.00;99897.63;5265780;28;20734;-72
2022/02/21 04:05:57;;;;;;;15.45;4.07;;;;;;;4.87;100.00;99890.31;5265618;28;20486;-73
2022/02/21 04:08:28;;;;;;;18.17;3.70;;;;;;;4.95;100.00;99892.31;5263806;28;20049;-73
2022/02/21 04:10:59;;;;;;;17.40;3.63;;;;;;;4.90;100.00;99890.06;5265503;28;20046;-73
2022/02/21 04:13:31;;;;;;;12.10;3.33;;;;;;;4.89;100.00;99891.03;5262705;28;20033;-71
2022/02/21 04:16:02;;;;;;;17.58;3.78;;;;;;;4.86;100.00;99876.50;5262309;28;20033;-73
2022/02/21 04:18:33;;;;;;;14.02;3.50;;;;;;;4.92;100.00;99876.97;5263368;28;20093;-74
2022/02/21 04:21:05;;;;;;;13.60;3.58;;;;;;;4.92;100.00;99892.53;5263342;28;20005;-72
2022/02/21 04:23:36;;;;;;;11.98;2.60;;;;;;;4.93;100.00;99876.88;5265694;28;20060;-73
2022/02/21 04:26:07;;;;;;;21.40;3.30;;;;;;;4.92;100.00;99882.16;5261678;28;20128;-74
2022/02/21 04:28:39;;;;;;;16.35;3.67;;;;;;;4.88;100.00;99878.97;5266957;28;20436;-73
2022/02/21 04:31:13;;;;;;;17.00;2.97;;;;;;;4.88;100.00;99878.97;5268231;28;20066;-73
2022/02/21 04:33:45;;;;;;;17.95;3.50;;;;;;;4.98;100.00;99890.31;5266912;28;20028;-73
2022/02/21 04:36:18;;;;;;;12.73;3.25;;;;;;;4.93;100.00;99899.41;5263176;28;20028;-73
2022/02/21 04:38:49;;;;;;;17.17;3.55;;;;;;;4.92;100.00;99905.53;5263403;28;20056;-73
2022/02/21 04:41:20;;;;;;;11.73;3.38;;;;;;;4.83;100.00;99887.13;5263950;28;20017;-72
2022/02/21 04:43:53;;;;;;;17.42;2.78;;;;;;;4.85;100.00;99900.00;5263796;28;20116;-72
2022/02/21 04:46:25;;;;;;;17.23;3.17;;;;;;;4.91;100.00;99903.88;5265165;28;20035;-73
2022/02/21 04:48:56;;;;;;;11.85;2.58;;;;;;;4.83;100.00;99900.09;5266399;28;20024;-73
2022/02/21 04:51:27;;;;;;;19.45;3.22;;;;;;;4.85;100.00;99918.16;5266248;28;20028;-72
2022/02/21 04:53:59;;;;;;;15.02;3.05;;;;;;;4.85;100.00;99912.97;5261073;28;20501;-73
2022/02/21 04:56:30;;;;;;;10.30;2.38;;;;;;;4.85;100.00;99920.75;5265376;28;20036;-73
2022/02/21 04:59:02;;;;;;;14.52;2.85;;;;;;;4.90;100.00;99917.81;5264308;28;20032;-72
2022/02/21 05:01:33;;;;;;;17.15;3.40;;;;;;;4.83;100.00;99904.47;5259760;28;20447;-72
2022/02/21 05:04:04;;;;;;;14.57;2.95;;;;;;;4.85;100.00;99905.19;5264374;28;20025;-72
2022/02/21 05:06:35;;;;;;;13.68;2.53;;;;;;;4.86;100.00;99912.00;5263384;28;20060;-72
2022/02/21 05:09:07;;;;;;;16.55;3.00;;;;;;;4.86;100.00;99912.00;5267482;28;20107;-71
2022/02/21 05:11:38;;;;;;;14.93;2.83;;;;;;;4.86;100.00;99914.59;5261977;28;20497;-73
2022/02/21 05:14:09;;;;;;;24.15;3.55;;;;;;;4.85;100.00;99902.59;5262738;28;20025;-71
2022/02/21 05:16:41;;;;;;;15.90;3.88;;;;;;;4.84;100.00;99903.50;5267548;28;20037;-72
2022/02/21 05:19:12;;;;;;;15.88;2.83;;;;;;;4.85;100.00;99912.97;5261431;28;20032;-72
2022/02/21 05:21:43;;;;;;;18.48;3.55;;;;;;;4.82;100.00;99898.44;5265044;28;20335;-73
2022/02/21 05:24:15;;;;;;;13.18;3.40;;;;;;;4.89;100.00;99896.22;5263011;28;20559;-73
2022/02/21 05:26:46;;;;;;;14.02;2.60;;;;;;;4.88;100.00;99902.31;5265068;28;20512;-73
2022/02/21 05:29:17;;;;;;;19.20;3.67;;;;;;;4.90;100.00;99894.44;5262796;28;20039;-72
2022/02/21 05:31:49;;;;;;;8.10;2.30;;;;;;;4.87;100.00;99898.91;5261889;28;20025;-72
2022/02/21 05:34:22;;;;;;;12.73;2.65;;;;;;;4.92;100.00;99901.16;5266579;28;20527;-73
2022/02/21 05:36:53;;;;;;;14.23;3.72;;;;;;;4.91;100.00;99888.31;5262486;28;20405;-72
2022/02/21 05:39:24;;;;;;;11.88;2.60;;;;;;;4.93;100.00;99902.81;5263739;28;20029;-73
2022/02/21 05:41:55;;;;;;;12.05;2.90;;;;;;;4.91;100.00;99886.53;5267662;28;20868;-72
2022/02/21 05:44:27;;;;;;;11.73;3.00;;;;;;;4.90;100.00;99884.06;5263586;28;20029;-73
2022/02/21 05:46:59;;;;;;;15.55;3.22;;;;;;;4.93;100.00;99894.22;5263951;28;20470;-72
2022/02/21 05:49:30;;;;;;;14.48;3.72;;;;;;;4.91;100.00;99885.72;5266958;28;20035;-74
2022/02/21 05:52:03;;;;;;;14.45;2.75;;;;;;;4.96;100.00;99880.97;5264092;28;20395;-73
2022/02/21 05:54:34;;;;;;;11.32;2.83;;;;;;;4.95;100.00;99889.72;5262274;28;20032;-72
2022/02/21 05:57:05;;;;;;;19.95;3.45;;;;;;;4.97;100.00;99891.25;5267659;28;20016;-73
2022/02/21 05:59:37;;;;;;;14.38;2.92;;;;;;;4.92;100.00;99874.38;5267481;28;20033;-72
2022/02/21 06:02:08;;;;;;;17.17;3.15;;;;;;;4.96;100.00;99892.19;5265585;28;20116;-73
2022/02/21 06:04:39;;;;;;;15.52;3.55;;;;;;;4.97;100.00;99887.84;5265334;28;20086;-72
2022/02/21 06:07:14;;;;;;;14.60;2.75;;;;;;;4.98;100.00;99892.91;5264836;28;20393;-73
2022/02/21 06:09:45;;;;;;;8.73;2.35;;;;;;;4.99;100.00;99883.34;5265184;28;20084;-73
2022/02/21 06:12:16;;;;;;;15.60;2.78;;;;;;;4.98;100.00;99885.13;5260531;28;20108;-73
2022/02/21 06:14:48;;;;;;;11.10;2.33;;;;;;;4.99;100.00;99896.31;5264450;28;20028;-72
2022/02/21 06:17:19;;;;;;;12.68;2.72;;;;;;;5.00;100.00;99888.44;5266795;28;20112;-73
2022/02/21 06:19:50;;;;;;;15.10;2.60;;;;;;;4.96;100.00;99889.59;5263965;28;20028;-72
2022/02/21 06:22:22;;;;;;;14.10;3.55;;;;;;;4.95;100.00;99880.16;5261166;28;20035;-72
2022/02/21 06:24:53;;;;;;;17.35;3.20;;;;;;;4.92;100.00;99888.16;5262705;28;20036;-73
2022/02/21 06:27:25;;;;;;;14.80;3.03;;;;;;;4.94;100.00;99890.66;5260486;28;20064;-72
2022/02/21 06:29:56;;;;;;;11.82;2.47;;;;;;;4.90;100.00;99879.69;5261761;28;20037;-73
2022/02/21 06:32:28;;;;;;;14.52;2.97;;;;;;;4.90;100.00;99884.88;5263238;28;20029;-73
2022/02/21 06:34:59;;;;;;;14.85;3.08;;;;;;;4.92;100.00;99879.56;5264260;28;20696;-73
2022/02/21 06:37:32;;;;;;;12.18;2.97;;;;;;;4.95;100.00;99887.94;5258712;28;20090;-73
2022/02/21 06:40:04;;;;;;;14.37;3.10;;;;;;;4.94;100.00;99894.09;5257504;28;20033;-73
2022/02/21 06:42:36;;;;;;;13.13;2.88;;;;;;;4.93;100.00;99894.22;5256900;28;20503;-72
2022/02/21 06:45:08;;;;;;;13.35;3.15;;;;;;;4.94;100.00;99898.47;5260740;28;20037;-72
2022/02/21 06:47:39;;;;;;;14.38;3.05;;;;;;;4.84;100.00;99893.94;5256371;28;20039;-73
2022/02/21 06:50:11;;;;;;;14.15;2.88;;;;;;;4.90;100.00;99881.47;5260662;28;20390;-73
2022/02/21 06:52:43;;;;;;;16.10;3.88;;;;;;;4.93;100.00;99899.41;5263227;28;20202;-72
2022/02/21 06:55:14;;;;;;;14.32;3.17;;;;;;;4.91;100.00;99883.94;5261439;28;20025;-73
2022/02/21 06:57:47;;;;;;;15.05;2.80;;;;;;;4.92;100.00;99888.16;5258322;28;20066;-73
2022/02/21 07:00:18;;;;;;;13.63;3.53;;;;;;;4.90;100.00;99884.88;5267478;28;20037;-74
2022/02/21 07:02:51;;;;;;;12.80;2.95;;;;;;;4.84;100.00;99874.97;5263916;28;20020;-71
2022/02/21 07:05:22;;;;;;;19.23;3.88;;;;;;;4.94;100.00;99890.66;5263799;28;20059;-73
2022/02/21 07:07:54;;;;;;;10.40;2.40;;;;;;;4.85;100.00;99893.03;5263535;28;20036;-71
2022/02/21 07:10:25;;;;;;;18.92;2.92;;;;;;;4.86;100.00;99884.28;5265777;28;20043;-72
2022/02/21 07:12:56;;;;;;;10.05;2.50;;;;;;;4.87;100.00;99885.13;5260567;28;20029;-71
2022/02/21 07:15:28;;;;;;;12.73;2.53;;;;;;;4.83;100.00;99886.28;5262986;28;20033;-72
2022/02/21 07:17:59;;;;;;;14.77;2.75;;;;;;;4.84;100.00;99880.16;5264241;28;20052;-71
2022/02/21 07:20:31;;;;;;;11.13;2.95;;;;;;;4.83;100.00;99875.91;5266450;28;20039;-73
2022/02/21 07:23:02;;;;;;;11.00;2.35;;;;;;;4.82;100.00;99879.47;5264674;28;20025;-73
2022/02/21 07:25:34;;;;;;;11.85;2.30;;;;;;;4.87;100.00;99882.53;5266437;28;20044;-72
2022/02/21 07:28:06;;;;;;;10.85;2.78;;;;;;;4.87;100.00;99880.75;5265712;28;20039;-73
2022/02/21 07:30:37;;;;;;;12.68;2.72;;;;;;;4.87;100.00;99872.97;5258851;28;20017;-72
2022/02/21 07:33:09;;;;;;;13.07;3.38;;;;;;;4.86;100.00;99873.09;5266241;28;20729;-72
2022/02/21 07:35:40;;;;;;;10.65;2.30;;;;;;;4.88;100.00;99872.00;5254122;28;20064;-71
2022/02/21 07:38:11;;;;;;;9.68;3.25;;;;;;;4.96;100.00;99881.81;5257164;28;20032;-73
2022/02/21 07:40:43;;;;;;;9.52;2.08;;;;;;;4.96;100.00;99881.81;5260363;28;20158;-73
2022/02/21 07:43:14;;;;;;;7.85;2.35;;;;;;;4.95;100.00;99877.56;5262672;28;20147;-72
2022/02/21 07:45:45;;;;;;;13.25;2.97;;;;;;;4.89;100.00;99875.47;5260954;28;20048;-71
2022/02/21 07:48:16;;;;;;;11.75;2.50;;;;;;;4.86;100.00;99879.09;5265668;28;20024;-72
2022/02/21 07:50:48;;;;;;;11.20;2.22;;;;;;;4.94;100.00;99872.50;5252901;28;20119;-73
2022/02/21 07:53:21;;;;;;;10.45;2.55;;;;;;;4.84;100.00;99847.22;5259121;28;20029;-73
2022/02/21 07:55:52;;;;;;;11.75;2.55;;;;;;;4.91;100.00;99857.97;5263086;28;20108;-72
2022/02/21 07:58:23;;;;;;;10.93;2.63;;;;;;;4.86;100.00;99858.34;5260908;28;20627;-72
2022/02/21 08:00:55;;;;;;;9.88;2.10;;;;;;;4.93;100.00;99860.47;5261207;28;20037;-72
2022/02/21 08:03:26;;;;;;;12.05;2.85;;;;;;;4.92;100.00;99851.84;5262669;28;20028;-73
2022/02/21 08:05:58;;;;;;;11.57;2.85;;;;;;;4.94;100.00;99847.38;5261043;28;20133;-73
2022/02/21 08:08:29;;;;;;;13.63;2.63;;;;;;;5.04;100.00;99848.31;5264460;28;20085;-72
2022/02/21 08:11:00;;;;;;;12.48;3.30;;;;;;;5.01;100.00;99840.75;5265319;28;20127;-73
2022/02/21 08:13:31;;;;;;;8.95;2.28;;;;;;;5.04;100.00;99840.53;5263604;28;20024;-73
2022/02/21 08:16:04;;;;;;;10.73;2.40;;;;;;;5.05;100.00;99829.19;5261740;28;20072;-71
2022/02/21 08:18:35;;;;;;;8.57;2.17;;;;;;;5.11;100.00;99838.25;5264687;28;20067;-71
2022/02/21 08:21:07;;;;;;;10.15;2.42;;;;;;;5.09;100.00;99832.38;5268677;28;20117;-73
2022/02/21 08:23:38;;;;;;;10.88;2.90;;;;;;;5.26;100.00;99838.81;5261107;28;20110;-73
2022/02/21 08:26:10;;;;;;;13.00;2.08;;;;;;;5.36;100.00;99813.78;5264388;28;20566;-73
2022/02/21 08:28:41;;;;;;;13.52;2.22;;;;;;;5.41;100.00;99819.44;5261977;28;20398;-72
2022/02/21 08:31:13;;;;;;;8.82;2.30;;;;;;;5.46;100.00;99814.72;5261945;28;20063;-73
2022/02/21 08:33:44;;;;;;;13.75;2.17;;;;;;;5.56;100.00;99807.81;5261760;28;20032;-73
2022/02/21 08:36:15;;;;;;;8.65;2.30;;;;;;;5.56;100.00;99814.78;5264856;28;20031;-71
2022/02/21 08:38:47;;;;;;;10.63;2.55;;;;;;;5.63;100.00;99802.13;5262047;28;20115;-71
2022/02/21 08:41:18;;;;;;;11.32;2.10;;;;;;;5.66;100.00;99805.31;5261024;28;20078;-71
2022/02/21 08:43:49;;;;;;;10.23;1.85;;;;;;;5.64;100.00;99802.00;5261451;28;20446;-73
2022/02/21 08:46:21;;;;;;;10.90;2.47;;;;;;;5.68;100.00;99797.38;5263853;28;20111;-73
2022/02/21 08:48:54;;;;;;;12.60;2.75;;;;;;;5.60;100.00;99793.63;5257558;28;20095;-73
2022/02/21 08:51:26;;;;;;;10.15;2.33;;;;;;;5.56;100.00;99791.41;5257501;28;20488;-72
2022/02/21 08:53:57;;;;;;;12.27;2.78;;;;;;;5.60;100.00;99790.22;5259647;28;20405;-71
2022/02/21 08:56:29;;;;;;;18.88;2.50;;;;;;;5.57;100.00;99788.69;5258923;28;20029;-72
2022/02/21 08:59:01;;;;;;;10.02;2.35;;;;;;;5.57;100.00;99788.69;5265596;28;20115;-73
2022/02/21 09:01:33;;;;;;;14.65;2.97;;;;;;;5.59;100.00;99802.38;5264595;28;20167;-73
2022/02/21 09:04:05;;;;;;;12.80;2.88;;;;;;;5.65;100.00;99801.06;5261188;28;20033;-72
2022/02/21 09:06:36;;;;;;;14.18;2.70;;;;;;;5.60;100.00;99790.22;5263682;28;20450;-72
2022/02/21 09:09:07;;;;;;;12.82;3.13;;;;;;;5.55;100.00;99792.38;5265016;28;20028;-72
2022/02/21 09:11:39;;;;;;;9.70;2.30;;;;;;;5.41;100.00;99767.50;5260284;28;20040;-73
2022/02/21 09:14:10;;;;;;;12.77;3.17;;;;;;;5.45;100.00;99768.88;5259209;28;20406;-73
2022/02/21 09:16:41;;;;;;;13.95;3.00;;;;;;;5.43;100.00;99770.81;5264063;28;20458;-73
2022/02/21 09:19:13;;;;;;;15.88;3.00;;;;;;;5.26;100.00;99753.13;5262092;28;20024;-73
2022/02/21 09:21:44;;;;;;;8.35;2.28;;;;;;;5.29;100.00;99760.69;5260593;28;20478;-72
2022/02/21 09:24:15;;;;;;;14.80;3.28;;;;;;;5.23;100.00;99782.78;5257156;28;20036;-73
2022/02/21 09:26:46;;;;;;;8.65;2.83;;;;;;;5.14;100.00;99757.53;5264159;28;20044;-73
2022/02/21 09:29:18;;;;;;;12.63;2.67;;;;;;;5.01;100.00;99768.09;5266205;28;20478;-72
2022/02/21 09:31:49;;;;;;;18.45;3.40;;;;;;;4.83;100.00;99754.78;5261104;28;20020;-72
2022/02/21 09:34:21;;;;;;;15.10;3.67;;;;;;;4.87;100.00;99745.78;5260374;28;20037;-72
2022/02/21 09:36:52;;;;;;;13.55;2.88;;;;;;;4.75;100.00;99738.97;5255913;28;20028;-73
2022/02/21 09:39:24;;;;;;;11.13;2.78;;;;;;;4.68;100.00;99735.22;5262420;28;20037;-71
2022/02/21 09:41:55;;;;;;;13.40;3.05;;;;;;;4.66;100.00;99724.16;5261103;28;20359;-73
2022/02/21 09:44:27;;;;;;;15.60;3.25;;;;;;;4.73;100.00;99720.09;5257302;28;20127;-73
2022/02/21 09:47:00;;;;;;;12.73;3.28;;;;;;;4.61;100.00;99711.50;5253751;28;20029;-73
2022/02/21 09:49:32;;;;;;;14.38;3.17;;;;;;;4.67;100.00;99714.59;5259274;28;20079;-73
2022/02/21 09:52:03;;;;;;;18.65;3.15;;;;;;;4.74;100.00;99708.81;5260521;28;20040;-72
2022/02/21 09:54:35;;;;;;;14.77;3.58;;;;;;;4.67;100.00;99718.00;5258453;28;20029;-73
2022/02/21 09:57:07;;;;;;;13.70;3.08;;;;;;;4.87;100.00;99695.66;5263247;28;20540;-73
2022/02/21 09:59:39;;;;;;;18.53;3.80;;;;;;;4.95;100.00;99692.47;5265817;28;20032;-73
2022/02/21 10:02:17;;;;;;;17.23;3.30;;;;;;;4.99;100.00;99679.13;5256399;28;20027;-73
2022/02/21 10:05:07;;;;;;;19.35;3.58;;;;;;;5.04;100.00;99696.94;5266295;28;20032;-73
2022/02/21 10:07:41;;;;;;;16.17;3.53;;;;;;;4.94;100.00;99704.63;5271926;28;20025;-73
2022/02/21 10:10:14;;;;;;;16.95;4.68;;;;;;;4.88;100.00;99702.50;5260335;28;21071;-72
2022/02/21 10:12:47;;;;;;;18.92;3.55;;;;;;;4.87;100.00;99683.50;5259902;28;20540;-73
2022/02/21 10:15:32;;;;;;;14.88;4.18;;;;;;;4.88;100.00;99679.16;5265347;28;20510;-73
2022/02/21 10:18:14;;;;;;;21.35;3.95;;;;;;;4.88;100.00;99667.00;5264584;28;20032;-73
2022/02/21 10:20:54;;;;;;;17.33;3.85;;;;;;;4.87;100.00;99669.72;5261218;28;20028;-71
2022/02/21 10:23:30;;;;;;;13.60;2.97;;;;;;;4.94;100.00;99664.88;5253761;28;20084;-73
2022/02/21 10:26:04;;;;;;;20.23;4.30;;;;;;;4.88;100.00;99669.59;5257584;28;20021;-73
2022/02/21 10:28:40;;;;;;;13.98;3.40;;;;;;;4.87;100.00;99682.69;5256467;28;20029;-73
2022/02/21 10:31:17;;;;;;;17.88;3.03;;;;;;;4.97;100.00;99678.44;5259422;28;20021;-73
2022/02/21 10:33:59;;;;;;;19.35;4.20;;;;;;;4.99;100.00;99681.72;5259432;28;20064;-73
2022/02/21 10:36:35;;;;;;;15.23;3.03;;;;;;;4.92;100.00;99687.50;5267031;28;20025;-73
2022/02/21 10:39:13;;;;;;;15.63;4.13;;;;;;;4.99;100.00;99683.47;5271020;28;20036;-72
2022/02/21 10:41:50;;;;;;;16.15;3.28;;;;;;;4.99;100.00;99688.69;5264085;28;20025;-73
2022/02/21 10:44:26;;;;;;;25.02;3.75;;;;;;;5.01;100.00;99700.59;5260376;28;20107;-73
2022/02/21 10:47:03;;;;;;;18.10;4.28;;;;;;;4.96;100.00;99683.72;5268421;28;20441;-73
2022/02/21 10:49:40;;;;;;;13.88;3.65;;;;;;;4.99;100.00;99683.47;5262366;28;20037;-73
2022/02/21 10:52:18;;;;;;;23.02;3.63;;;;;;;5.03;100.00;99688.31;5263710;28;20017;-73
2022/02/21 10:54:50;;;;;;;18.27;4.13;;;;;;;5.04;100.00;99696.94;5265598;28;20028;-73
2022/02/21 10:57:28;;;;;;;17.95;4.22;;;;;;;5.01;100.00;99689.38;5259020;28;20032;-72
2022/02/21 10:59:59;;;;;;;17.17;4.82;;;;;;;5.01;100.00;99691.97;5264494;28;20044;-74
2022/02/21 11:02:32;;;;;;;23.75;4.63;;;;;;;5.02;100.00;99676.28;5264125;28;20016;-74
2022/02/21 11:05:04;;;;;;;15.32;3.28;;;;;;;5.12;100.00;99682.38;5259635;28;20045;-74
2022/02/21 11:07:38;;;;;;;24.00;4.78;;;;;;;5.23;100.00;99685.91;5265358;28;20052;-74
2022/02/21 11:10:10;;;;;;;20.73;4.53;;;;;;;5.21;100.00;99682.59;5262941;28;20060;-74
2022/02/21 11:12:44;;;;;;;18.45;4.00;;;;;;;5.30;100.00;99677.47;5262073;28;20025;-73
2022/02/21 11:15:16;;;;;;;20.60;4.43;;;;;;;5.37;100.00;99678.59;5260314;28;20024;-73
2022/02/21 11:17:47;;;;;;;20.17;5.35;;;;;;;5.36;100.00;99679.56;5260991;28;20555;-73
2022/02/21 11:20:19;;;;;;;19.77;4.80;;;;;;;5.43;100.00;99681.66;5258270;28;20080;-73
2022/02/21 11:22:51;;;;;;;15.43;4.68;;;;;;;5.45;100.00;99677.97;5264506;28;20023;-73
2022/02/21 11:25:54;;;;;;;18.48;5.35;;;;;;;5.52;100.00;99680.91;5263253;28;20033;-73
2022/02/21 11:28:31;;;;;;;19.08;4.72;;;;;;;5.47;100.00;99677.88;5248360;28;20094;-74
2022/02/21 11:31:06;;;;;;;18.05;3.80;;;;;;;5.48;100.00;99667.34;5266195;28;20065;-74
2022/02/21 11:34:00;;;;;;;23.65;4.90;;;;;;;5.57;100.00;99674.38;5259617;28;20509;-74
2022/02/21 11:36:33;;;;;;;21.58;3.97;;;;;;;5.55;100.00;99680.66;5259407;28;20080;-73
2022/02/21 11:39:30;;;;;;;22.42;4.47;;;;;;;5.69;100.00;99669.13;5265817;28;20020;-74
2022/02/21 11:42:17;;;;;;;24.65;4.88;;;;;;;5.54;100.00;99674.63;5255545;28;20055;-74
2022/02/21 11:44:51;;;;;;;21.15;5.65;;;;;;;5.63;100.00;99669.63;5258975;28;20029;-74
2022/02/21 11:47:43;;;;;;;27.20;5.00;;;;;;;5.75;100.00;99681.59;5257310;28;20036;-74
2022/02/21 11:50:17;;;;;;;20.33;5.78;;;;;;;5.81;100.00;99674.13;5246194;28;20035;-74